Terminal Aerodrome Forecast
Issued by NWS

Home | Current Version | Previous Version | Text Only | Print | Product List | Glossary On
Versions: 1 2 3 4 5 6 7 8 9 10 11 12 13 14 15 16 17 18 19 20 21 22 23 24 25 26 27 28 29 30 31 32 33 34
292
FTUS44 KFWD 221616 AAC
TAFGKY
TAF AMD
KGKY 221616Z 2216/2312 11010KT P6SM VCSH BKN012 OVC015
      TEMPO 2216/2218 OVC008
     FM222200 12009KT P6SM BKN025
     FM230500 13010KT P6SM OVC015
     FM230900 14007KT 5SM BR OVC008=

USA.gov is the U.S. government's official web portal to all federal, state and local government web resources and services.